Valparaiso, Chile
Current Conditions -  °F | °C
As of 8:00 AM on Friday 24 Oct 2014 (Local Time) from SCVM Reporting Station
Light Fog Light Fog  
Wind Chill: 54°   Ceiling: Unl
Heat Index: 54°   Visibility: 6mi
Dew Point: 52°   Wind: 2mph
Humidity: 94%   Direction: 360°N
Pressure: 30"   Gusts: NA
Location:  33.04°S, 71.64°W
Report Text: SCVM 241200Z 36002KT 9999 BCFG FEW008 12/11 Q1016
Loading
Personal Weather Stations






























Interactive Weather Map
Tropical Storm Tracking
New forecast layout! Learn more

10-Day Weather Forecast

Advertisements
Track Severe Weather on mobile